Aérodrome :
LOGIN :

S'inscrire | Disclaimer

   EN    FR    IT 

 










Légende :    VFR   VFR Marginal   IFR   IFR Intensif   IFR Très Intensif
Visi : 
Plafond : 
>= 8 km
>= 3000ft
5 à 8 km
1000 à 3000 ft
1500m à 5 km
500 à 1000 ft
800 à 1500m
200 à 500 ft
< 800m
< 200 ft
Symboles :   Orages  Brouillard  Fortes neiges  Fortes précipitations  Vent > 20 kt
SIGMETs :   Divers  Orages  Givrage  Turbulence  Onde Orograph.  Cendres Volcan.







- Altitude de l'aérodrome : 306 ft
- Code IATA : EMA
- Voir les cartes d'approche


EGNX - Nottingham East Midlands

DERNIER METAR :
  • 211220Z VRB08KT CAVOK 21/11 Q1017

METARs EXPIRÉS :
  • 211150Z 03006KT 270V080 CAVOK 20/11 Q1017
  • 211120Z VRB05KT CAVOK 20/10 Q1018
  • 211050Z 07006KT 030V100 CAVOK 19/10 Q1018
  • 211020Z 04006KT 350V090 CAVOK 18/09 Q1018
  • 210950Z 05005KT 340V120 CAVOK 18/09 Q1018

TAF TAF EGNX
Valide du 21 à 12h jusqu'au 22 à 12h UTC


211100Z 2112/2212 VRB05KT 9999 FEW045
BECMG 2112/2115 07010KT
PROB30
TEMPO 2114/2118 4000 +SHRA TSGR
BECMG 2119/2122 36005KT
PROB30
TEMPO 2202/2208 8000 BKN004
ATIS : +44 1332 852 852 (ext 3201)
Pas de NOTAMs connus pour ce terrain.



MET'MAP, la Météo Aéronautique d'un coup d'oeil ! - Copyright ORBIFLY Décembre 2007 - Disclaimer

ORBIFLY MET'MAP TEAM :

Programmation & Développement : Alexandra Zaïnal
Conception & Développement : Baudouin d'Aumeries
Co-Programmation & Développement : Marc-Olivier Méhu
Soutien technique & logistique : Manuel Goepfert

Contact : metmap@orbifly.com




SOURCES & CREDITS :

   NOAA